createdAt,value
2017-08-11T00:02:16.072Z,83.00
2017-08-11T00:04:44.102Z,83.00
2017-08-11T00:07:12.169Z,82.50
2017-08-11T00:09:40.364Z,82.30
2017-08-11T00:12:08.447Z,82.40
2017-08-11T00:14:36.543Z,82.60
2017-08-11T00:17:04.675Z,82.40
2017-08-11T00:19:32.830Z,82.40
2017-08-11T00:22:00.890Z,82.80
2017-08-11T00:24:29.084Z,83.20
2017-08-11T00:26:57.074Z,83.70
2017-08-11T00:29:25.124Z,84.40
2017-08-11T00:31:53.298Z,85.30
2017-08-11T00:34:21.356Z,87.00
2017-08-11T00:36:49.427Z,87.50
2017-08-11T00:39:17.537Z,88.80
2017-08-11T00:41:45.557Z,89.20
2017-08-11T00:44:13.596Z,89.50
2017-08-11T00:46:41.754Z,89.90
2017-08-11T00:49:09.785Z,90.20
2017-08-11T00:51:37.864Z,90.50
2017-08-11T00:54:06.046Z,90.60
2017-08-11T00:56:34.131Z,90.60
2017-08-11T00:59:02.222Z,90.60
2017-08-11T01:01:30.371Z,90.40
2017-08-11T01:03:58.425Z,90.20
2017-08-11T01:06:26.439Z,90.10
2017-08-11T01:08:54.668Z,90.10
2017-08-11T01:11:22.661Z,90.10
2017-08-11T01:13:50.689Z,90.20
2017-08-11T01:16:18.899Z,90.20
2017-08-11T01:18:46.965Z,90.30
2017-08-11T01:21:15.167Z,90.20
2017-08-11T01:23:43.359Z,90.00
2017-08-11T01:26:11.396Z,90.00
2017-08-11T01:28:39.417Z,90.10
2017-08-11T01:31:07.608Z,90.10
2017-08-11T01:33:35.629Z,90.10
2017-08-11T01:36:03.658Z,90.00
2017-08-11T01:38:31.864Z,90.00
2017-08-11T01:40:59.861Z,90.10
2017-08-11T01:43:27.977Z,90.20
2017-08-11T01:45:56.181Z,90.90
2017-08-11T01:48:24.225Z,90.80
2017-08-11T01:50:52.282Z,91.00
2017-08-11T01:53:20.465Z,91.40
2017-08-11T01:55:48.568Z,93.00
2017-08-11T01:58:16.657Z,93.20
2017-08-11T02:00:44.864Z,93.70
2017-08-11T02:03:12.962Z,94.10
2017-08-11T02:05:41.275Z,94.50
2017-08-11T02:08:09.553Z,94.60
2017-08-11T02:10:37.635Z,94.60
2017-08-11T02:13:05.701Z,94.80
2017-08-11T02:15:33.950Z,95.20
2017-08-11T02:18:01.991Z,95.20
2017-08-11T02:20:30.026Z,95.20
2017-08-11T02:22:58.356Z,95.10
2017-08-11T02:25:26.406Z,95.30
2017-08-11T02:27:54.462Z,95.50
2017-08-11T02:30:22.628Z,95.50
2017-08-11T02:32:50.713Z,95.50
2017-08-11T02:35:18.740Z,95.70
2017-08-11T02:37:46.895Z,95.90
2017-08-11T02:40:14.971Z,96.00
2017-08-11T02:42:43.003Z,96.90
2017-08-11T02:45:11.173Z,96.90
2017-08-11T02:47:39.165Z,97.00
2017-08-11T02:50:07.180Z,96.60
2017-08-11T02:52:35.330Z,96.30
2017-08-11T02:55:03.423Z,96.30
2017-08-11T02:57:31.421Z,96.20
2017-08-11T02:59:59.647Z,96.50
2017-08-11T03:02:27.713Z,96.40
2017-08-11T03:04:55.832Z,96.80
2017-08-11T03:07:23.991Z,97.50
2017-08-11T03:09:52.009Z,98.10
2017-08-11T03:12:20.041Z,98.50
2017-08-11T03:14:48.196Z,99.10
2017-08-11T03:17:16.308Z,99.20
2017-08-11T03:19:44.365Z,99.20
2017-08-11T03:22:12.533Z,99.10
2017-08-11T03:24:40.760Z,98.70
2017-08-11T03:27:08.828Z,98.70
2017-08-11T03:29:37.040Z,98.20
2017-08-11T03:32:05.100Z,97.80
2017-08-11T03:34:33.216Z,97.90
2017-08-11T03:37:01.378Z,97.40
2017-08-11T03:39:29.448Z,96.90
2017-08-11T03:41:57.509Z,96.50
2017-08-11T03:44:25.656Z,95.60
2017-08-11T03:46:53.909Z,95.60
2017-08-11T03:49:22.092Z,95.30
2017-08-11T03:51:50.233Z,94.90
2017-08-11T03:54:18.337Z,94.30
2017-08-11T03:56:46.397Z,92.80
2017-08-11T03:59:14.560Z,92.70
2017-08-11T04:01:42.614Z,91.40
2017-08-11T04:04:10.678Z,90.90
2017-08-11T04:06:38.872Z,91.10
2017-08-11T04:09:06.901Z,91.00
2017-08-11T04:11:34.943Z,90.30
2017-08-11T04:14:03.109Z,90.00
2017-08-11T04:16:31.219Z,90.20
2017-08-11T04:18:59.221Z,89.10
2017-08-11T04:21:27.377Z,89.60
2017-08-11T04:23:55.471Z,87.40
2017-08-11T04:26:23.685Z,85.90
2017-08-11T04:28:51.866Z,84.60
2017-08-11T04:31:19.853Z,82.70
2017-08-11T04:33:47.933Z,81.20
2017-08-11T04:36:16.160Z,76.90
2017-08-11T04:38:44.232Z,71.60
2017-08-11T04:41:12.326Z,67.50
2017-08-11T04:43:40.473Z,62.30
2017-08-11T04:46:08.501Z,58.30
2017-08-11T04:48:36.564Z,56.90
2017-08-11T04:51:04.765Z,54.30
2017-08-11T04:53:32.807Z,53.60
2017-08-11T04:56:00.863Z,54.50
2017-08-11T04:58:29.096Z,55.10
2017-08-11T05:00:57.116Z,55.40
2017-08-11T05:03:25.184Z,54.90
2017-08-11T05:05:53.302Z,52.90
2017-08-11T05:08:21.325Z,50.90
2017-08-11T05:10:49.341Z,50.20
2017-08-11T05:13:17.571Z,48.80
2017-08-11T05:15:45.669Z,48.20
2017-08-11T05:18:13.774Z,48.60
2017-08-11T05:20:41.893Z,48.50
2017-08-11T05:23:09.938Z,49.60
2017-08-11T05:25:38.012Z,49.80
2017-08-11T05:28:06.249Z,49.40
2017-08-11T05:30:34.295Z,50.10
2017-08-11T05:33:02.358Z,50.40
2017-08-11T05:35:30.509Z,50.60
2017-08-11T05:37:58.528Z,51.10
2017-08-11T05:40:26.668Z,50.20
2017-08-11T05:42:54.852Z,48.30
2017-08-11T05:45:22.900Z,47.30
2017-08-11T05:47:50.924Z,46.40
2017-08-11T05:50:19.029Z,47.00
2017-08-11T05:52:47.049Z,46.70
2017-08-11T05:55:15.095Z,45.70
2017-08-11T05:57:43.282Z,46.10
2017-08-11T06:00:11.335Z,46.20
2017-08-11T06:02:39.568Z,46.60
2017-08-11T06:05:07.729Z,46.40
2017-08-11T06:07:35.781Z,46.90
2017-08-11T06:10:03.865Z,47.60
2017-08-11T06:12:32.045Z,47.60
2017-08-11T06:15:00.154Z,47.80
2017-08-11T06:17:28.244Z,48.00
2017-08-11T06:19:56.469Z,48.50
2017-08-11T06:22:24.529Z,48.40
2017-08-11T06:24:52.612Z,47.60
2017-08-11T06:27:20.822Z,46.70
2017-08-11T06:29:49.034Z,45.60
2017-08-11T06:32:17.089Z,43.40
2017-08-11T06:34:45.290Z,41.70
2017-08-11T06:37:13.321Z,41.30
2017-08-11T06:39:41.324Z,40.10
2017-08-11T06:42:09.539Z,39.00
2017-08-11T06:44:37.548Z,37.00
2017-08-11T06:47:05.656Z,36.80
2017-08-11T06:49:33.833Z,36.60
2017-08-11T06:52:01.849Z,36.30
2017-08-11T06:54:29.869Z,37.50
2017-08-11T06:56:58.088Z,37.90
2017-08-11T06:59:26.121Z,39.20
2017-08-11T07:01:54.196Z,38.80
2017-08-11T07:04:22.360Z,39.10
2017-08-11T07:06:50.392Z,38.70
2017-08-11T07:09:18.400Z,38.70
2017-08-11T07:11:46.636Z,39.00
2017-08-11T07:14:14.685Z,39.00
2017-08-11T07:16:42.713Z,39.00
2017-08-11T07:19:10.952Z,38.90
2017-08-11T07:21:39.037Z,39.10
2017-08-11T07:24:07.080Z,38.80
2017-08-11T07:26:35.271Z,39.00
2017-08-11T07:29:03.327Z,38.90
2017-08-11T07:31:31.542Z,38.30
2017-08-11T07:33:59.696Z,38.50
2017-08-11T07:36:27.757Z,38.50
2017-08-11T07:38:55.815Z,38.50
2017-08-11T07:41:24.044Z,38.60
2017-08-11T07:43:52.086Z,37.80
2017-08-11T07:46:20.187Z,36.30
2017-08-11T07:48:48.364Z,34.90
2017-08-11T07:51:16.500Z,33.60
2017-08-11T07:53:44.588Z,32.90
2017-08-11T07:56:12.741Z,32.30
2017-08-11T07:58:40.775Z,31.30
2017-08-11T08:01:08.794Z,30.60
2017-08-11T08:03:36.966Z,30.00
2017-08-11T08:06:05.021Z,30.60
2017-08-11T08:08:33.073Z,32.30
2017-08-11T08:11:01.272Z,33.60
2017-08-11T08:13:29.302Z,35.10
2017-08-11T08:15:57.360Z,35.60
2017-08-11T08:18:25.489Z,35.80
2017-08-11T08:20:53.561Z,35.50
2017-08-11T08:23:21.632Z,35.80
2017-08-11T08:25:49.801Z,35.70
2017-08-11T08:28:17.888Z,36.70
2017-08-11T08:30:45.886Z,36.50
2017-08-11T08:33:14.006Z,36.40
2017-08-11T08:35:42.100Z,36.00
2017-08-11T08:38:10.198Z,35.70
2017-08-11T08:40:38.414Z,36.10
2017-08-11T08:43:06.472Z,36.00
2017-08-11T08:45:34.489Z,35.60
2017-08-11T08:48:02.630Z,35.80
2017-08-11T08:50:30.645Z,35.50
2017-08-11T08:52:58.665Z,35.40
2017-08-11T08:55:26.794Z,35.90
2017-08-11T08:57:54.864Z,36.20
2017-08-11T09:00:22.885Z,36.50
2017-08-11T09:02:51.029Z,35.70
2017-08-11T09:05:19.052Z,35.70
2017-08-11T09:07:47.866Z,35.30
2017-08-11T09:10:16.035Z,36.00
2017-08-11T09:12:44.120Z,35.80
2017-08-11T09:15:12.138Z,35.60
2017-08-11T09:17:40.309Z,35.80
2017-08-11T09:20:08.349Z,35.70
2017-08-11T09:22:36.384Z,35.80
2017-08-11T09:25:15.988Z,35.60
2017-08-11T09:27:55.417Z,35.40
2017-08-11T09:30:49.856Z,35.10
2017-08-11T09:33:29.391Z,35.30
2017-08-11T09:36:17.738Z,45.90
2017-08-11T09:38:45.918Z,46.50
2017-08-11T09:41:14.034Z,48.00
2017-08-11T09:43:42.178Z,49.20
2017-08-11T09:46:10.282Z,48.40
2017-08-11T09:48:38.355Z,48.70
2017-08-11T09:51:06.496Z,49.90
2017-08-11T09:53:34.549Z,49.50
2017-08-11T09:56:02.608Z,50.20
2017-08-11T09:58:30.782Z,52.10
2017-08-11T10:00:58.810Z,52.20
2017-08-11T10:03:26.915Z,53.70
2017-08-11T10:05:55.319Z,53.40
2017-08-11T10:08:23.377Z,51.70
2017-08-11T10:10:51.438Z,51.60
2017-08-11T10:13:19.581Z,51.70
2017-08-11T10:15:47.669Z,51.00
2017-08-11T10:18:15.782Z,51.30
2017-08-11T10:20:43.947Z,51.30
2017-08-11T10:23:12.036Z,48.60
2017-08-11T10:25:40.053Z,52.70
2017-08-11T10:28:08.249Z,52.60
2017-08-11T10:30:36.292Z,51.70
2017-08-11T10:33:04.380Z,50.60
2017-08-11T10:35:32.564Z,50.80
2017-08-11T10:38:00.635Z,50.30
2017-08-11T10:40:28.814Z,51.10
2017-08-11T10:42:57.020Z,52.30
2017-08-11T10:45:25.091Z,53.70
2017-08-11T10:47:53.169Z,59.50
2017-08-11T10:50:21.308Z,63.00
2017-08-11T10:52:49.329Z,67.10
2017-08-11T10:55:17.381Z,70.50
2017-08-11T10:57:45.522Z,68.70
2017-08-11T11:00:13.560Z,67.70
2017-08-11T11:02:41.625Z,66.50
2017-08-11T11:05:09.786Z,64.00
2017-08-11T11:07:37.877Z,64.80
2017-08-11T11:10:05.960Z,65.20
2017-08-11T11:12:34.132Z,63.10
2017-08-11T11:15:02.208Z,65.00
2017-08-11T11:17:30.282Z,63.40
2017-08-11T11:19:58.496Z,65.50
2017-08-11T11:22:26.588Z,65.00
2017-08-11T11:24:54.638Z,64.90
2017-08-11T11:27:22.762Z,64.80
2017-08-11T11:29:50.845Z,66.40
2017-08-11T11:32:18.902Z,67.20
2017-08-11T11:34:47.097Z,72.90
2017-08-11T11:37:15.142Z,73.60
2017-08-11T11:39:43.181Z,74.50
2017-08-11T11:42:11.484Z,75.90
2017-08-11T11:44:39.525Z,77.40
2017-08-11T11:47:07.609Z,78.20
2017-08-11T11:49:35.780Z,77.10
2017-08-11T11:52:03.971Z,79.60
2017-08-11T11:54:32.003Z,80.90
2017-08-11T11:57:00.170Z,78.10
2017-08-11T11:59:29.036Z,77.30
2017-08-11T12:01:57.111Z,77.60
2017-08-11T12:04:25.348Z,80.70
2017-08-11T12:06:53.440Z,83.00
2017-08-11T12:09:21.508Z,82.70
2017-08-11T12:11:49.675Z,80.40
2017-08-11T12:14:17.769Z,82.10
2017-08-11T12:16:45.794Z,82.40
2017-08-11T12:19:13.968Z,87.20
2017-08-11T12:21:41.996Z,87.80
2017-08-11T12:24:10.124Z,88.80
2017-08-11T12:26:38.361Z,88.70
2017-08-11T12:29:06.397Z,90.60
2017-08-11T12:31:34.430Z,92.00
2017-08-11T12:34:02.637Z,91.10
2017-08-11T12:36:30.700Z,93.50
2017-08-11T12:38:58.756Z,92.80
2017-08-11T12:46:38.383Z,94.80
2017-08-11T12:49:06.468Z,95.40
2017-08-11T12:51:34.550Z,96.90
2017-08-11T12:56:35.992Z,97.20
2017-08-11T12:59:04.075Z,96.70
2017-08-11T13:01:32.109Z,97.50
2017-08-11T13:04:00.284Z,98.20
2017-08-11T13:06:28.362Z,98.90
2017-08-11T13:08:56.418Z,98.40
2017-08-11T13:11:24.637Z,97.80
2017-08-11T13:13:52.708Z,97.60
2017-08-11T13:16:20.720Z,98.10
2017-08-11T13:18:48.842Z,99.50
2017-08-11T13:21:16.954Z,99.50
2017-08-11T13:23:44.989Z,98.70
2017-08-11T13:26:13.201Z,96.80
2017-08-11T13:28:41.257Z,96.20
2017-08-11T13:31:09.327Z,95.10
2017-08-11T13:33:37.575Z,94.80
2017-08-11T13:36:05.653Z,94.50
2017-08-11T13:38:33.710Z,94.10
2017-08-11T13:41:01.900Z,94.50
2017-08-11T13:43:29.955Z,94.70
2017-08-11T13:45:58.235Z,95.40
2017-08-11T13:48:26.386Z,95.70
2017-08-11T13:50:54.421Z,95.80
2017-08-11T13:53:22.446Z,96.00
2017-08-11T13:55:50.622Z,96.00
2017-08-11T13:58:18.703Z,95.70
2017-08-11T14:00:46.696Z,95.10
2017-08-11T14:03:14.867Z,94.90
2017-08-11T14:05:42.885Z,94.80
2017-08-11T14:08:10.973Z,94.80
2017-08-11T14:10:39.204Z,95.30
2017-08-11T14:13:29.349Z,95.50
2017-08-11T14:16:31.689Z,95.20
2017-08-11T14:18:59.740Z,93.20
2017-08-11T14:21:27.831Z,92.80
2017-08-11T14:24:01.796Z,92.70
2017-08-11T14:26:29.827Z,92.70
2017-08-11T14:28:57.882Z,93.30
2017-08-11T14:31:26.045Z,93.10
2017-08-11T14:33:54.110Z,93.30
2017-08-11T14:36:22.148Z,93.00
2017-08-11T14:38:50.366Z,93.40
2017-08-11T14:41:18.452Z,93.20
2017-08-11T14:43:46.450Z,94.20
2017-08-11T14:46:14.950Z,93.80
2017-08-11T14:48:43.022Z,91.90
2017-08-11T14:51:11.116Z,90.10
2017-08-11T14:53:39.223Z,87.00
2017-08-11T14:56:07.297Z,85.50
2017-08-11T14:58:35.341Z,86.80
2017-08-11T15:01:03.332Z,88.60
2017-08-11T15:03:31.425Z,87.70
2017-08-11T15:05:59.462Z,86.80
2017-08-11T15:08:27.496Z,87.60
2017-08-11T15:10:55.560Z,88.20
2017-08-11T15:13:23.626Z,88.60
2017-08-11T15:15:51.676Z,89.40
2017-08-11T15:18:19.742Z,90.40
2017-08-11T15:20:47.790Z,90.80
2017-08-11T15:23:15.914Z,90.80
2017-08-11T15:25:43.926Z,90.30
2017-08-11T15:28:11.995Z,87.60
2017-08-11T15:30:40.066Z,86.80
2017-08-11T15:33:08.115Z,87.70
2017-08-11T15:35:36.201Z,89.20
2017-08-11T15:38:04.248Z,88.20
2017-08-11T15:40:32.286Z,87.40
2017-08-11T15:43:00.351Z,91.00
2017-08-11T15:45:28.389Z,95.10
2017-08-11T15:47:56.744Z,97.60
2017-08-11T15:50:24.798Z,98.20
2017-08-11T15:52:52.873Z,99.20
2017-08-11T15:55:20.925Z,99.90
2017-08-11T15:57:48.994Z,99.90
2017-08-11T16:00:17.022Z,99.90
2017-08-11T16:02:45.067Z,99.90
2017-08-11T16:05:13.090Z,99.30
2017-08-11T16:07:41.171Z,95.80
2017-08-11T16:10:09.296Z,94.10
2017-08-11T16:12:37.352Z,93.50
2017-08-11T16:15:05.545Z,93.30
2017-08-11T16:17:33.625Z,93.10
2017-08-11T16:20:01.689Z,92.80
2017-08-11T16:22:29.740Z,92.50
2017-08-11T16:24:57.796Z,92.10
2017-08-11T16:27:25.897Z,91.90
2017-08-11T16:29:53.975Z,91.30
2017-08-11T16:32:22.040Z,90.60
2017-08-11T16:34:50.112Z,90.00
2017-08-11T16:37:18.187Z,89.50
2017-08-11T16:39:46.263Z,88.70
2017-08-11T16:42:14.314Z,87.90
2017-08-11T16:44:42.478Z,86.90
2017-08-11T16:47:10.497Z,85.90
2017-08-11T16:49:38.540Z,85.00
2017-08-11T16:52:06.545Z,83.10
2017-08-11T16:54:34.611Z,81.70
2017-08-11T16:57:02.664Z,80.80
2017-08-11T16:59:30.772Z,80.10
2017-08-11T17:01:58.866Z,79.70
2017-08-11T17:04:26.867Z,79.60
2017-08-11T17:06:54.888Z,79.70
2017-08-11T17:09:24.145Z,79.80
2017-08-11T17:11:52.181Z,80.10
2017-08-11T17:14:20.291Z,80.60
2017-08-11T17:16:48.357Z,81.00
2017-08-11T17:19:16.406Z,81.40
2017-08-11T17:21:44.444Z,82.00
2017-08-11T17:24:12.543Z,82.40
2017-08-11T17:26:40.728Z,83.20
2017-08-11T17:29:08.767Z,83.70
2017-08-11T17:31:36.809Z,84.40
2017-08-11T17:34:04.832Z,86.10
2017-08-11T17:36:32.900Z,86.00
2017-08-11T17:39:01.016Z,86.50
2017-08-11T17:41:29.065Z,87.30
2017-08-11T17:43:57.124Z,87.90
2017-08-11T17:46:25.251Z,88.40
2017-08-11T17:48:53.302Z,89.30
2017-08-11T17:51:21.313Z,89.90
2017-08-11T17:53:49.383Z,90.10
2017-08-11T17:56:17.585Z,90.20
2017-08-11T17:58:45.645Z,90.20
2017-08-11T18:01:13.700Z,90.40
2017-08-11T18:03:41.852Z,90.60
2017-08-11T18:06:09.932Z,90.70
2017-08-11T18:08:37.992Z,90.90
2017-08-11T18:11:06.065Z,91.00
2017-08-11T18:13:34.102Z,91.10
2017-08-11T18:16:02.176Z,91.20
2017-08-11T18:18:30.236Z,90.70
2017-08-11T18:20:58.296Z,90.60
2017-08-11T18:23:26.380Z,90.50
2017-08-11T18:25:54.536Z,88.70
2017-08-11T18:28:22.605Z,88.20
2017-08-11T18:30:50.637Z,87.80
2017-08-11T18:33:18.712Z,87.30
2017-08-11T18:35:46.729Z,86.80
2017-08-11T18:38:14.733Z,86.00
2017-08-11T18:40:42.841Z,85.60
2017-08-11T18:43:10.891Z,85.80
2017-08-11T18:45:38.919Z,87.50
2017-08-11T18:48:07.046Z,88.20
2017-08-11T18:50:35.129Z,87.70
2017-08-11T18:53:03.136Z,85.90
2017-08-11T18:55:31.189Z,84.70
2017-08-11T18:57:59.258Z,84.70
2017-08-11T19:00:27.278Z,85.30
2017-08-11T19:02:55.341Z,87.10
2017-08-11T19:05:23.415Z,88.90
2017-08-11T19:07:51.526Z,91.10
2017-08-11T19:10:19.551Z,93.50
2017-08-11T19:12:47.656Z,96.10
2017-08-11T19:15:15.782Z,98.00
2017-08-11T19:17:44.062Z,98.70
2017-08-11T19:20:12.066Z,98.80
2017-08-11T19:22:40.172Z,98.90
2017-08-11T19:25:08.206Z,98.80
2017-08-11T19:27:36.217Z,98.80
2017-08-11T19:30:04.249Z,98.80
2017-08-11T19:32:32.322Z,98.90
2017-08-11T19:35:00.403Z,98.80
2017-08-11T19:37:28.576Z,98.40
2017-08-11T19:39:56.614Z,97.90
2017-08-11T19:42:24.665Z,97.60
2017-08-11T19:44:52.864Z,96.70
2017-08-11T19:47:20.893Z,96.30
2017-08-11T19:49:48.885Z,95.80
2017-08-11T19:52:17.029Z,95.40
2017-08-11T19:54:45.251Z,95.20
2017-08-11T19:57:13.477Z,94.90
2017-08-11T19:59:41.665Z,94.90
2017-08-11T20:02:09.877Z,94.50
2017-08-11T20:04:37.918Z,94.30
2017-08-11T20:07:06.083Z,94.00
2017-08-11T20:09:36.570Z,93.00
2017-08-11T20:12:04.695Z,92.00
2017-08-11T20:14:33.066Z,91.60
2017-08-11T20:17:01.125Z,90.80
2017-08-11T20:19:29.272Z,89.60
2017-08-11T20:21:57.459Z,89.10
2017-08-11T20:24:25.524Z,88.10
2017-08-11T20:26:53.542Z,87.30
2017-08-11T20:29:21.736Z,87.10
2017-08-11T20:31:49.790Z,87.20
2017-08-11T20:34:17.923Z,85.90
2017-08-11T20:36:46.045Z,85.00
2017-08-11T20:39:14.168Z,85.80
2017-08-11T20:41:42.208Z,86.30
2017-08-11T20:44:10.357Z,86.00
2017-08-11T20:46:38.368Z,90.10
2017-08-11T20:49:06.417Z,92.00
2017-08-11T20:51:34.584Z,92.00
2017-08-11T20:54:02.636Z,91.80
2017-08-11T20:56:30.701Z,92.10
2017-08-11T20:58:58.878Z,92.10
2017-08-11T21:01:26.873Z,93.20
2017-08-11T21:03:54.955Z,95.20
2017-08-11T21:06:23.107Z,96.20
2017-08-11T21:08:51.152Z,96.70
2017-08-11T21:11:19.234Z,97.00
2017-08-11T21:13:47.391Z,96.70
2017-08-11T21:16:15.437Z,95.90
2017-08-11T21:18:43.452Z,95.70
2017-08-11T21:21:11.787Z,95.80
2017-08-11T21:23:39.892Z,94.80
2017-08-11T21:26:07.913Z,94.10
2017-08-11T21:28:36.080Z,94.00
2017-08-11T21:31:04.123Z,93.60
2017-08-11T21:33:32.268Z,93.50
2017-08-11T21:36:00.464Z,93.40
2017-08-11T21:38:28.485Z,93.90
2017-08-11T21:40:56.565Z,93.60
2017-08-11T21:43:24.690Z,93.60
2017-08-11T21:45:52.829Z,93.20
2017-08-11T21:48:20.867Z,92.40
2017-08-11T21:50:49.042Z,91.40
2017-08-11T21:53:17.131Z,90.20
2017-08-11T21:55:45.194Z,90.00
2017-08-11T21:58:13.313Z,90.50
2017-08-11T22:00:42.496Z,91.20
2017-08-11T22:03:10.517Z,91.80
2017-08-11T22:05:38.726Z,92.50
2017-08-11T22:08:06.748Z,94.60
2017-08-11T22:10:34.860Z,97.40
2017-08-11T22:13:03.040Z,99.90
2017-08-11T22:15:31.094Z,99.90
2017-08-11T22:17:59.149Z,99.90
2017-08-11T22:20:27.308Z,99.90
2017-08-11T22:22:55.497Z,99.90
2017-08-11T22:25:23.561Z,99.90
2017-08-11T22:27:51.705Z,99.90
2017-08-11T22:30:19.785Z,99.90
2017-08-11T22:32:47.845Z,99.90
2017-08-11T22:35:15.984Z,99.90
2017-08-11T22:37:44.042Z,99.90
2017-08-11T22:40:12.075Z,99.90
2017-08-11T22:42:40.289Z,99.90
2017-08-11T22:45:08.323Z,99.90
2017-08-11T22:47:36.354Z,99.90
2017-08-11T22:50:04.507Z,99.90
2017-08-11T22:52:32.512Z,99.90
2017-08-11T22:55:00.533Z,99.90
2017-08-11T22:57:28.732Z,99.90
2017-08-11T22:59:56.748Z,99.90
2017-08-11T23:02:24.828Z,96.90
2017-08-11T23:04:52.973Z,93.10
2017-08-11T23:07:21.056Z,90.50
2017-08-11T23:09:49.127Z,87.80
2017-08-11T23:12:17.285Z,86.10
2017-08-11T23:14:45.271Z,85.70
2017-08-11T23:17:13.335Z,85.80
2017-08-11T23:19:41.483Z,86.20
2017-08-11T23:22:09.550Z,86.30
2017-08-11T23:24:37.754Z,86.30
2017-08-11T23:27:05.968Z,86.60
2017-08-11T23:29:34.007Z,87.30
2017-08-11T23:32:02.011Z,87.70
2017-08-11T23:34:30.122Z,88.10
2017-08-11T23:36:58.299Z,88.70
2017-08-11T23:39:26.337Z,89.50
2017-08-11T23:41:54.560Z,90.20
2017-08-11T23:44:22.643Z,90.90
2017-08-11T23:46:50.726Z,91.40
2017-08-11T23:49:18.838Z,91.70
2017-08-11T23:51:46.943Z,92.10
2017-08-11T23:54:14.993Z,92.30
2017-08-11T23:56:43.165Z,92.70
2017-08-11T23:59:11.221Z,93.00
